sensor_id;sensor_type;location;lat;lon;timestamp;temperature;humidity
40670;DHT22;26355;45.528;9.234;2023-02-04T00:00:07;12.20;99.90
40670;DHT22;26355;45.528;9.234;2023-02-04T00:02:33;12.40;99.90
40670;DHT22;26355;45.528;9.234;2023-02-04T00:05:01;12.20;99.90
40670;DHT22;26355;45.528;9.234;2023-02-04T00:07:27;12.30;99.90
40670;DHT22;26355;45.528;9.234;2023-02-04T00:09:52;12.00;99.90
40670;DHT22;26355;45.528;9.234;2023-02-04T00:12:18;12.20;99.90
40670;DHT22;26355;45.528;9.234;2023-02-04T00:14:43;12.00;99.90
40670;DHT22;26355;45.528;9.234;2023-02-04T00:17:09;12.10;99.90
40670;DHT22;26355;45.528;9.234;2023-02-04T00:19:38;12.00;99.90
40670;DHT22;26355;45.528;9.234;2023-02-04T00:22:03;12.00;99.90
40670;DHT22;26355;45.528;9.234;2023-02-04T00:24:29;12.10;99.90
40670;DHT22;26355;45.528;9.234;2023-02-04T00:26:55;12.10;99.90
40670;DHT22;26355;45.528;9.234;2023-02-04T00:29:20;12.00;99.90
40670;DHT22;26355;45.528;9.234;2023-02-04T00:31:46;12.10;99.90
40670;DHT22;26355;45.528;9.234;2023-02-04T00:34:11;13.10;99.90
40670;DHT22;26355;45.528;9.234;2023-02-04T00:36:37;12.00;99.90
40670;DHT22;26355;45.528;9.234;2023-02-04T00:39:02;12.00;99.90
40670;DHT22;26355;45.528;9.234;2023-02-04T00:41:28;12.10;99.90
40670;DHT22;26355;45.528;9.234;2023-02-04T00:43:53;12.10;99.90
40670;DHT22;26355;45.528;9.234;2023-02-04T00:46:19;12.00;99.90
40670;DHT22;26355;45.528;9.234;2023-02-04T00:48:44;12.10;99.90
40670;DHT22;26355;45.528;9.234;2023-02-04T00:51:10;12.00;99.90
40670;DHT22;26355;45.528;9.234;2023-02-04T00:53:35;12.10;99.90
40670;DHT22;26355;45.528;9.234;2023-02-04T00:56:01;12.10;99.90
40670;DHT22;26355;45.528;9.234;2023-02-04T00:58:26;12.20;99.90
40670;DHT22;26355;45.528;9.234;2023-02-04T01:00:52;12.30;99.90
40670;DHT22;26355;45.528;9.234;2023-02-04T01:03:17;12.10;99.90
40670;DHT22;26355;45.528;9.234;2023-02-04T01:05:43;12.10;99.90
40670;DHT22;26355;45.528;9.234;2023-02-04T01:08:08;12.10;99.90
40670;DHT22;26355;45.528;9.234;2023-02-04T01:10:33;12.00;99.90
40670;DHT22;26355;45.528;9.234;2023-02-04T01:12:59;12.00;99.90
40670;DHT22;26355;45.528;9.234;2023-02-04T01:15:25;12.00;99.90
40670;DHT22;26355;45.528;9.234;2023-02-04T01:17:50;11.80;99.90
40670;DHT22;26355;45.528;9.234;2023-02-04T01:20:16;11.90;99.90
40670;DHT22;26355;45.528;9.234;2023-02-04T01:22:41;11.80;99.90
40670;DHT22;26355;45.528;9.234;2023-02-04T01:25:07;11.80;99.90
40670;DHT22;26355;45.528;9.234;2023-02-04T01:27:32;11.80;99.90
40670;DHT22;26355;45.528;9.234;2023-02-04T01:29:58;11.80;99.90
40670;DHT22;26355;45.528;9.234;2023-02-04T01:32:23;12.20;99.90
40670;DHT22;26355;45.528;9.234;2023-02-04T01:34:49;11.60;99.90
40670;DHT22;26355;45.528;9.234;2023-02-04T01:37:14;12.20;99.90
40670;DHT22;26355;45.528;9.234;2023-02-04T01:39:40;11.70;99.90
40670;DHT22;26355;45.528;9.234;2023-02-04T01:42:05;11.70;99.90
40670;DHT22;26355;45.528;9.234;2023-02-04T01:44:31;11.70;99.90
40670;DHT22;26355;45.528;9.234;2023-02-04T01:46:56;11.70;99.90
40670;DHT22;26355;45.528;9.234;2023-02-04T01:49:22;11.80;99.90
40670;DHT22;26355;45.528;9.234;2023-02-04T01:51:48;11.70;99.90
40670;DHT22;26355;45.528;9.234;2023-02-04T01:54:14;11.70;99.90
40670;DHT22;26355;45.528;9.234;2023-02-04T01:56:42;11.70;99.90
40670;DHT22;26355;45.528;9.234;2023-02-04T01:59:12;11.70;99.90
40670;DHT22;26355;45.528;9.234;2023-02-04T02:01:39;11.80;99.90
40670;DHT22;26355;45.528;9.234;2023-02-04T02:04:08;11.80;99.90
40670;DHT22;26355;45.528;9.234;2023-02-04T02:06:34;11.70;99.90
40670;DHT22;26355;45.528;9.234;2023-02-04T02:09:01;11.90;99.90
40670;DHT22;26355;45.528;9.234;2023-02-04T02:11:26;11.90;99.90
40670;DHT22;26355;45.528;9.234;2023-02-04T02:13:52;11.70;99.90
40670;DHT22;26355;45.528;9.234;2023-02-04T02:16:18;11.90;99.90
40670;DHT22;26355;45.528;9.234;2023-02-04T02:18:43;11.90;99.90
40670;DHT22;26355;45.528;9.234;2023-02-04T02:21:09;11.80;99.90
40670;DHT22;26355;45.528;9.234;2023-02-04T02:26:08;11.80;99.90
40670;DHT22;26355;45.528;9.234;2023-02-04T02:28:34;11.80;99.90
40670;DHT22;26355;45.528;9.234;2023-02-04T02:30:59;11.80;99.90
40670;DHT22;26355;45.528;9.234;2023-02-04T02:33:25;11.90;99.90
40670;DHT22;26355;45.528;9.234;2023-02-04T02:35:50;11.80;99.90
40670;DHT22;26355;45.528;9.234;2023-02-04T02:38:16;11.90;99.90
40670;DHT22;26355;45.528;9.234;2023-02-04T02:40:42;12.50;99.90
40670;DHT22;26355;45.528;9.234;2023-02-04T02:43:14;11.80;99.90
40670;DHT22;26355;45.528;9.234;2023-02-04T02:45:40;11.80;99.90
40670;DHT22;26355;45.528;9.234;2023-02-04T02:48:07;11.90;99.90
40670;DHT22;26355;45.528;9.234;2023-02-04T02:50:33;11.80;99.90
40670;DHT22;26355;45.528;9.234;2023-02-04T02:52:59;11.80;99.90
40670;DHT22;26355;45.528;9.234;2023-02-04T02:55:25;11.70;99.90
40670;DHT22;26355;45.528;9.234;2023-02-04T02:57:51;11.70;99.90
40670;DHT22;26355;45.528;9.234;2023-02-04T03:00:24;11.70;99.90
40670;DHT22;26355;45.528;9.234;2023-02-04T03:05:22;11.70;99.90
40670;DHT22;26355;45.528;9.234;2023-02-04T03:07:47;11.90;99.90
40670;DHT22;26355;45.528;9.234;2023-02-04T03:10:14;11.60;99.90
40670;DHT22;26355;45.528;9.234;2023-02-04T03:12:40;11.70;99.90
40670;DHT22;26355;45.528;9.234;2023-02-04T03:15:06;11.70;99.90
40670;DHT22;26355;45.528;9.234;2023-02-04T03:17:31;11.60;99.90
40670;DHT22;26355;45.528;9.234;2023-02-04T03:19:57;12.90;99.90
40670;DHT22;26355;45.528;9.234;2023-02-04T03:22:23;11.50;99.90
40670;DHT22;26355;45.528;9.234;2023-02-04T03:24:48;11.50;99.90
40670;DHT22;26355;45.528;9.234;2023-02-04T03:27:14;11.60;99.90
40670;DHT22;26355;45.528;9.234;2023-02-04T03:29:41;11.50;99.90
40670;DHT22;26355;45.528;9.234;2023-02-04T03:32:07;11.50;99.90
40670;DHT22;26355;45.528;9.234;2023-02-04T03:34:32;11.90;99.90
40670;DHT22;26355;45.528;9.234;2023-02-04T03:36:58;11.60;99.90
40670;DHT22;26355;45.528;9.234;2023-02-04T03:39:23;11.50;99.90
40670;DHT22;26355;45.528;9.234;2023-02-04T03:41:49;11.50;99.90
40670;DHT22;26355;45.528;9.234;2023-02-04T03:44:14;11.50;99.90
40670;DHT22;26355;45.528;9.234;2023-02-04T03:46:40;11.60;99.90
40670;DHT22;26355;45.528;9.234;2023-02-04T03:49:05;11.60;99.90
40670;DHT22;26355;45.528;9.234;2023-02-04T03:51:31;11.60;99.90
40670;DHT22;26355;45.528;9.234;2023-02-04T03:53:56;11.60;99.90
40670;DHT22;26355;45.528;9.234;2023-02-04T03:56:22;11.90;99.90
40670;DHT22;26355;45.528;9.234;2023-02-04T03:58:47;11.60;99.90
40670;DHT22;26355;45.528;9.234;2023-02-04T04:01:14;11.60;99.90
40670;DHT22;26355;45.528;9.234;2023-02-04T04:03:39;11.60;99.90
40670;DHT22;26355;45.528;9.234;2023-02-04T04:06:04;11.70;99.90
40670;DHT22;26355;45.528;9.234;2023-02-04T04:08:32;11.50;99.90
40670;DHT22;26355;45.528;9.234;2023-02-04T04:10:59;11.80;99.90
40670;DHT22;26355;45.528;9.234;2023-02-04T04:13:25;11.50;99.90
40670;DHT22;26355;45.528;9.234;2023-02-04T04:15:50;11.60;99.90
40670;DHT22;26355;45.528;9.234;2023-02-04T04:18:16;11.50;99.90
40670;DHT22;26355;45.528;9.234;2023-02-04T04:20:41;11.50;99.90
40670;DHT22;26355;45.528;9.234;2023-02-04T04:23:07;11.70;99.90
40670;DHT22;26355;45.528;9.234;2023-02-04T04:25:32;11.60;99.90
40670;DHT22;26355;45.528;9.234;2023-02-04T04:27:58;11.60;99.70
40670;DHT22;26355;45.528;9.234;2023-02-04T04:30:23;11.60;99.50
40670;DHT22;26355;45.528;9.234;2023-02-04T04:32:49;11.70;99.30
40670;DHT22;26355;45.528;9.234;2023-02-04T04:35:14;11.60;99.00
40670;DHT22;26355;45.528;9.234;2023-02-04T04:37:40;11.70;99.00
40670;DHT22;26355;45.528;9.234;2023-02-04T04:40:05;11.80;98.70
40670;DHT22;26355;45.528;9.234;2023-02-04T04:42:31;11.80;98.30
40670;DHT22;26355;45.528;9.234;2023-02-04T04:44:56;11.80;98.50
40670;DHT22;26355;45.528;9.234;2023-02-04T04:47:22;12.30;98.50
40670;DHT22;26355;45.528;9.234;2023-02-04T04:49:47;11.70;98.10
40670;DHT22;26355;45.528;9.234;2023-02-04T04:52:13;11.80;98.10
40670;DHT22;26355;45.528;9.234;2023-02-04T04:54:38;11.70;98.00
40670;DHT22;26355;45.528;9.234;2023-02-04T04:57:04;11.60;98.10
40670;DHT22;26355;45.528;9.234;2023-02-04T04:59:29;11.50;98.20
40670;DHT22;26355;45.528;9.234;2023-02-04T05:01:55;11.60;98.40
40670;DHT22;26355;45.528;9.234;2023-02-04T05:04:20;11.60;98.40
40670;DHT22;26355;45.528;9.234;2023-02-04T05:06:46;11.60;98.30
40670;DHT22;26355;45.528;9.234;2023-02-04T05:09:11;11.50;98.20
40670;DHT22;26355;45.528;9.234;2023-02-04T05:11:37;11.70;98.00
40670;DHT22;26355;45.528;9.234;2023-02-04T05:14:02;11.60;97.80
40670;DHT22;26355;45.528;9.234;2023-02-04T05:16:28;11.80;97.90
40670;DHT22;26355;45.528;9.234;2023-02-04T05:18:53;11.40;97.70
40670;DHT22;26355;45.528;9.234;2023-02-04T05:21:19;11.40;97.40
40670;DHT22;26355;45.528;9.234;2023-02-04T05:23:44;11.60;97.40
40670;DHT22;26355;45.528;9.234;2023-02-04T05:26:09;11.50;97.60
40670;DHT22;26355;45.528;9.234;2023-02-04T05:28:35;11.60;97.90
40670;DHT22;26355;45.528;9.234;2023-02-04T05:31:01;11.50;98.70
40670;DHT22;26355;45.528;9.234;2023-02-04T05:33:26;11.50;99.40
40670;DHT22;26355;45.528;9.234;2023-02-04T05:35:51;11.40;99.80
40670;DHT22;26355;45.528;9.234;2023-02-04T05:38:17;11.20;99.90
40670;DHT22;26355;45.528;9.234;2023-02-04T05:40:42;11.40;99.90
40670;DHT22;26355;45.528;9.234;2023-02-04T05:43:08;11.30;99.90
40670;DHT22;26355;45.528;9.234;2023-02-04T05:45:33;11.90;99.90
40670;DHT22;26355;45.528;9.234;2023-02-04T05:47:59;11.40;99.90
40670;DHT22;26355;45.528;9.234;2023-02-04T05:50:24;11.40;99.90
40670;DHT22;26355;45.528;9.234;2023-02-04T05:52:50;11.30;99.90
40670;DHT22;26355;45.528;9.234;2023-02-04T05:55:15;11.20;99.90
40670;DHT22;26355;45.528;9.234;2023-02-04T05:57:41;11.40;99.90
40670;DHT22;26355;45.528;9.234;2023-02-04T06:00:07;11.30;99.90
40670;DHT22;26355;45.528;9.234;2023-02-04T06:02:32;11.30;99.90
40670;DHT22;26355;45.528;9.234;2023-02-04T06:04:58;11.40;99.90
40670;DHT22;26355;45.528;9.234;2023-02-04T06:07:24;11.50;99.90
40670;DHT22;26355;45.528;9.234;2023-02-04T06:09:49;11.20;99.90
40670;DHT22;26355;45.528;9.234;2023-02-04T06:12:15;11.30;99.90
40670;DHT22;26355;45.528;9.234;2023-02-04T06:14:40;11.30;99.90
40670;DHT22;26355;45.528;9.234;2023-02-04T06:17:06;11.10;99.90
40670;DHT22;26355;45.528;9.234;2023-02-04T06:19:31;11.30;99.90
40670;DHT22;26355;45.528;9.234;2023-02-04T06:21:57;11.40;99.90
40670;DHT22;26355;45.528;9.234;2023-02-04T06:24:22;11.50;99.90
40670;DHT22;26355;45.528;9.234;2023-02-04T06:26:48;12.10;99.90
40670;DHT22;26355;45.528;9.234;2023-02-04T06:29:13;11.90;99.90
40670;DHT22;26355;45.528;9.234;2023-02-04T06:31:39;12.10;99.90
40670;DHT22;26355;45.528;9.234;2023-02-04T06:34:04;11.80;99.70
40670;DHT22;26355;45.528;9.234;2023-02-04T06:36:30;11.90;99.20
40670;DHT22;26355;45.528;9.234;2023-02-04T06:38:56;12.00;98.40
40670;DHT22;26355;45.528;9.234;2023-02-04T06:41:22;12.10;98.70
40670;DHT22;26355;45.528;9.234;2023-02-04T06:43:47;11.90;98.60
40670;DHT22;26355;45.528;9.234;2023-02-04T06:46:13;12.00;98.70
40670;DHT22;26355;45.528;9.234;2023-02-04T06:48:38;11.90;98.90
40670;DHT22;26355;45.528;9.234;2023-02-04T06:51:04;11.80;99.10
40670;DHT22;26355;45.528;9.234;2023-02-04T06:53:29;11.70;99.40
40670;DHT22;26355;45.528;9.234;2023-02-04T06:55:55;11.50;99.60
40670;DHT22;26355;45.528;9.234;2023-02-04T06:58:20;11.50;99.90
40670;DHT22;26355;45.528;9.234;2023-02-04T07:00:46;11.70;99.90
40670;DHT22;26355;45.528;9.234;2023-02-04T07:03:11;11.70;99.90
40670;DHT22;26355;45.528;9.234;2023-02-04T07:05:37;11.60;99.90
40670;DHT22;26355;45.528;9.234;2023-02-04T07:08:02;11.50;99.90
40670;DHT22;26355;45.528;9.234;2023-02-04T07:10:28;11.60;99.90
40670;DHT22;26355;45.528;9.234;2023-02-04T07:12:53;11.50;99.90
40670;DHT22;26355;45.528;9.234;2023-02-04T07:15:19;11.60;99.90
40670;DHT22;26355;45.528;9.234;2023-02-04T07:17:44;11.70;99.90
40670;DHT22;26355;45.528;9.234;2023-02-04T07:20:10;11.80;99.90
40670;DHT22;26355;45.528;9.234;2023-02-04T07:22:35;11.80;99.90
40670;DHT22;26355;45.528;9.234;2023-02-04T07:25:01;11.90;99.90
40670;DHT22;26355;45.528;9.234;2023-02-04T07:27:27;11.90;99.90
40670;DHT22;26355;45.528;9.234;2023-02-04T07:29:52;11.90;99.90
40670;DHT22;26355;45.528;9.234;2023-02-04T07:32:18;11.90;99.90
40670;DHT22;26355;45.528;9.234;2023-02-04T07:34:43;12.00;99.90
40670;DHT22;26355;45.528;9.234;2023-02-04T07:37:09;12.10;99.90
40670;DHT22;26355;45.528;9.234;2023-02-04T07:39:34;12.40;99.90
40670;DHT22;26355;45.528;9.234;2023-02-04T07:42:00;12.90;99.90
40670;DHT22;26355;45.528;9.234;2023-02-04T07:44:25;13.60;99.90
40670;DHT22;26355;45.528;9.234;2023-02-04T07:46:51;14.40;99.50
40670;DHT22;26355;45.528;9.234;2023-02-04T07:49:16;15.20;98.60
40670;DHT22;26355;45.528;9.234;2023-02-04T07:51:41;16.20;97.50
40670;DHT22;26355;45.528;9.234;2023-02-04T07:54:07;16.90;96.50
40670;DHT22;26355;45.528;9.234;2023-02-04T07:56:32;17.50;95.60
40670;DHT22;26355;45.528;9.234;2023-02-04T07:58:58;17.90;94.80
40670;DHT22;26355;45.528;9.234;2023-02-04T08:01:24;18.30;94.40
40670;DHT22;26355;45.528;9.234;2023-02-04T08:03:49;18.50;93.70
40670;DHT22;26355;45.528;9.234;2023-02-04T08:06:14;18.50;93.20
40670;DHT22;26355;45.528;9.234;2023-02-04T08:08:40;18.50;93.00
40670;DHT22;26355;45.528;9.234;2023-02-04T08:11:05;18.70;92.60
40670;DHT22;26355;45.528;9.234;2023-02-04T08:13:31;19.00;91.90
40670;DHT22;26355;45.528;9.234;2023-02-04T08:15:56;19.50;91.60
40670;DHT22;26355;45.528;9.234;2023-02-04T08:18:24;19.70;90.90
40670;DHT22;26355;45.528;9.234;2023-02-04T08:20:50;20.00;90.30
40670;DHT22;26355;45.528;9.234;2023-02-04T08:23:15;20.20;89.30
40670;DHT22;26355;45.528;9.234;2023-02-04T08:25:41;20.10;88.60
40670;DHT22;26355;45.528;9.234;2023-02-04T08:28:06;20.10;87.80
40670;DHT22;26355;45.528;9.234;2023-02-04T08:30:32;20.50;87.50
40670;DHT22;26355;45.528;9.234;2023-02-04T08:32:57;20.70;85.70
40670;DHT22;26355;45.528;9.234;2023-02-04T08:35:23;20.80;84.30
40670;DHT22;26355;45.528;9.234;2023-02-04T08:37:48;20.80;84.20
40670;DHT22;26355;45.528;9.234;2023-02-04T08:40:14;20.50;84.40
40670;DHT22;26355;45.528;9.234;2023-02-04T08:42:39;20.40;83.90
40670;DHT22;26355;45.528;9.234;2023-02-04T08:45:05;20.50;84.70
40670;DHT22;26355;45.528;9.234;2023-02-04T08:47:30;20.70;83.30
40670;DHT22;26355;45.528;9.234;2023-02-04T08:49:56;20.70;83.20
40670;DHT22;26355;45.528;9.234;2023-02-04T08:52:22;20.80;82.20
40670;DHT22;26355;45.528;9.234;2023-02-04T08:54:47;20.90;83.40
40670;DHT22;26355;45.528;9.234;2023-02-04T08:57:13;21.00;81.50
40670;DHT22;26355;45.528;9.234;2023-02-04T08:59:38;20.90;81.80
40670;DHT22;26355;45.528;9.234;2023-02-04T09:02:04;21.00;80.50
40670;DHT22;26355;45.528;9.234;2023-02-04T09:04:29;20.90;80.30
40670;DHT22;26355;45.528;9.234;2023-02-04T09:06:54;21.00;79.30
40670;DHT22;26355;45.528;9.234;2023-02-04T09:09:20;20.80;79.10
40670;DHT22;26355;45.528;9.234;2023-02-04T09:11:45;21.10;79.10
40670;DHT22;26355;45.528;9.234;2023-02-04T09:14:11;21.10;80.30
40670;DHT22;26355;45.528;9.234;2023-02-04T09:16:37;21.20;78.80
40670;DHT22;26355;45.528;9.234;2023-02-04T09:19:02;21.30;79.50
40670;DHT22;26355;45.528;9.234;2023-02-04T09:21:28;21.40;77.50
40670;DHT22;26355;45.528;9.234;2023-02-04T09:23:53;21.70;78.00
40670;DHT22;26355;45.528;9.234;2023-02-04T09:26:19;22.00;77.10
40670;DHT22;26355;45.528;9.234;2023-02-04T09:28:45;22.10;75.90
40670;DHT22;26355;45.528;9.234;2023-02-04T09:31:12;22.40;75.90
40670;DHT22;26355;45.528;9.234;2023-02-04T09:33:37;22.50;75.50
40670;DHT22;26355;45.528;9.234;2023-02-04T09:36:03;22.60;73.00
40670;DHT22;26355;45.528;9.234;2023-02-04T09:38:29;22.70;73.20
40670;DHT22;26355;45.528;9.234;2023-02-04T09:41:05;23.00;73.40
40670;DHT22;26355;45.528;9.234;2023-02-04T09:43:33;23.00;71.10
40670;DHT22;26355;45.528;9.234;2023-02-04T09:45:59;23.10;71.20
40670;DHT22;26355;45.528;9.234;2023-02-04T09:48:25;23.40;71.00
40670;DHT22;26355;45.528;9.234;2023-02-04T09:50:51;23.40;70.20
40670;DHT22;26355;45.528;9.234;2023-02-04T09:53:21;23.50;68.90
40670;DHT22;26355;45.528;9.234;2023-02-04T09:55:47;23.80;68.70
40670;DHT22;26355;45.528;9.234;2023-02-04T09:58:14;23.80;68.70
40670;DHT22;26355;45.528;9.234;2023-02-04T10:00:43;24.10;68.40
40670;DHT22;26355;45.528;9.234;2023-02-04T10:03:12;24.30;68.20
40670;DHT22;26355;45.528;9.234;2023-02-04T10:05:38;24.40;67.20
40670;DHT22;26355;45.528;9.234;2023-02-04T10:08:04;24.60;66.00
40670;DHT22;26355;45.528;9.234;2023-02-04T10:10:30;24.60;63.70
40670;DHT22;26355;45.528;9.234;2023-02-04T10:12:59;24.70;63.90
40670;DHT22;26355;45.528;9.234;2023-02-04T10:15:26;24.70;63.50
40670;DHT22;26355;45.528;9.234;2023-02-04T10:17:57;24.80;63.20
40670;DHT22;26355;45.528;9.234;2023-02-04T10:20:23;24.80;62.80
40670;DHT22;26355;45.528;9.234;2023-02-04T10:22:50;25.10;63.30
40670;DHT22;26355;45.528;9.234;2023-02-04T10:25:17;25.20;62.40
40670;DHT22;26355;45.528;9.234;2023-02-04T10:27:50;25.40;62.40
40670;DHT22;26355;45.528;9.234;2023-02-04T10:30:20;25.50;61.70
40670;DHT22;26355;45.528;9.234;2023-02-04T10:32:46;25.60;61.00
40670;DHT22;26355;45.528;9.234;2023-02-04T10:35:12;25.60;60.00
40670;DHT22;26355;45.528;9.234;2023-02-04T10:37:38;25.70;60.50
40670;DHT22;26355;45.528;9.234;2023-02-04T10:40:04;25.80;59.30
40670;DHT22;26355;45.528;9.234;2023-02-04T10:42:30;26.10;58.50
40670;DHT22;26355;45.528;9.234;2023-02-04T10:44:55;26.10;57.80
40670;DHT22;26355;45.528;9.234;2023-02-04T10:47:25;26.30;57.50
40670;DHT22;26355;45.528;9.234;2023-02-04T10:49:55;26.50;56.80
40670;DHT22;26355;45.528;9.234;2023-02-04T10:52:23;26.70;56.90
40670;DHT22;26355;45.528;9.234;2023-02-04T10:54:49;26.90;56.50
40670;DHT22;26355;45.528;9.234;2023-02-04T10:57:22;27.10;55.00
40670;DHT22;26355;45.528;9.234;2023-02-04T10:59:49;27.30;55.70
40670;DHT22;26355;45.528;9.234;2023-02-04T11:04:43;28.00;54.70
40670;DHT22;26355;45.528;9.234;2023-02-04T11:07:10;29.60;54.00
40670;DHT22;26355;45.528;9.234;2023-02-04T11:09:39;30.80;52.40
40670;DHT22;26355;45.528;9.234;2023-02-04T11:12:17;32.00;51.10
40670;DHT22;26355;45.528;9.234;2023-02-04T11:14:43;33.00;51.00
40670;DHT22;26355;45.528;9.234;2023-02-04T11:17:19;34.00;49.00
40670;DHT22;26355;45.528;9.234;2023-02-04T11:19:44;34.60;47.90
40670;DHT22;26355;45.528;9.234;2023-02-04T11:22:20;35.20;47.40
40670;DHT22;26355;45.528;9.234;2023-02-04T11:24:47;35.60;46.80
40670;DHT22;26355;45.528;9.234;2023-02-04T11:29:43;36.10;45.70
40670;DHT22;26355;45.528;9.234;2023-02-04T11:32:29;36.00;44.90
40670;DHT22;26355;45.528;9.234;2023-02-04T11:35:04;35.80;44.30
40670;DHT22;26355;45.528;9.234;2023-02-04T11:37:35;36.00;44.20
40670;DHT22;26355;45.528;9.234;2023-02-04T11:40:01;36.40;44.20
40670;DHT22;26355;45.528;9.234;2023-02-04T11:42:40;36.40;43.70
40670;DHT22;26355;45.528;9.234;2023-02-04T11:45:15;37.20;42.90
40670;DHT22;26355;45.528;9.234;2023-02-04T11:47:42;37.70;42.70
40670;DHT22;26355;45.528;9.234;2023-02-04T11:50:16;37.90;42.70
40670;DHT22;26355;45.528;9.234;2023-02-04T11:52:43;38.50;43.20
40670;DHT22;26355;45.528;9.234;2023-02-04T11:55:09;38.80;41.50
40670;DHT22;26355;45.528;9.234;2023-02-04T11:57:40;39.10;41.50
40670;DHT22;26355;45.528;9.234;2023-02-04T12:00:11;39.50;41.60
40670;DHT22;26355;45.528;9.234;2023-02-04T12:02:45;39.90;41.40
40670;DHT22;26355;45.528;9.234;2023-02-04T12:05:12;39.90;40.30
40670;DHT22;26355;45.528;9.234;2023-02-04T12:07:38;40.20;40.10
40670;DHT22;26355;45.528;9.234;2023-02-04T12:10:11;40.50;40.60
40670;DHT22;26355;45.528;9.234;2023-02-04T12:12:41;40.50;40.00
40670;DHT22;26355;45.528;9.234;2023-02-04T12:15:13;40.70;39.90
40670;DHT22;26355;45.528;9.234;2023-02-04T12:17:42;38.20;39.40
40670;DHT22;26355;45.528;9.234;2023-02-04T12:20:08;36.00;39.60
40670;DHT22;26355;45.528;9.234;2023-02-04T12:22:34;34.00;40.60
40670;DHT22;26355;45.528;9.234;2023-02-04T12:24:59;32.50;41.50
40670;DHT22;26355;45.528;9.234;2023-02-04T12:27:25;31.20;41.90
40670;DHT22;26355;45.528;9.234;2023-02-04T12:29:50;30.00;42.40
40670;DHT22;26355;45.528;9.234;2023-02-04T12:32:16;29.20;43.00
40670;DHT22;26355;45.528;9.234;2023-02-04T12:34:41;28.40;43.30
40670;DHT22;26355;45.528;9.234;2023-02-04T12:37:07;28.00;44.20
40670;DHT22;26355;45.528;9.234;2023-02-04T12:39:32;27.60;44.20
40670;DHT22;26355;45.528;9.234;2023-02-04T12:41:58;27.20;44.40
40670;DHT22;26355;45.528;9.234;2023-02-04T12:44:23;26.80;44.20
40670;DHT22;26355;45.528;9.234;2023-02-04T12:46:49;26.40;44.40
40670;DHT22;26355;45.528;9.234;2023-02-04T12:49:15;26.20;44.70
40670;DHT22;26355;45.528;9.234;2023-02-04T12:51:40;26.00;45.00
40670;DHT22;26355;45.528;9.234;2023-02-04T12:54:06;25.80;45.50
40670;DHT22;26355;45.528;9.234;2023-02-04T12:56:31;25.70;45.70
40670;DHT22;26355;45.528;9.234;2023-02-04T12:58:57;25.50;45.70
40670;DHT22;26355;45.528;9.234;2023-02-04T13:01:22;25.40;46.00
40670;DHT22;26355;45.528;9.234;2023-02-04T13:03:48;25.30;46.30
40670;DHT22;26355;45.528;9.234;2023-02-04T13:06:13;25.20;46.20
40670;DHT22;26355;45.528;9.234;2023-02-04T13:08:39;25.10;46.40
40670;DHT22;26355;45.528;9.234;2023-02-04T13:11:04;24.90;46.50
40670;DHT22;26355;45.528;9.234;2023-02-04T13:13:30;24.70;46.30
40670;DHT22;26355;45.528;9.234;2023-02-04T13:15:55;24.70;46.50
40670;DHT22;26355;45.528;9.234;2023-02-04T13:18:21;24.50;46.40
40670;DHT22;26355;45.528;9.234;2023-02-04T13:20:46;24.40;46.60
40670;DHT22;26355;45.528;9.234;2023-02-04T13:23:12;24.40;47.00
40670;DHT22;26355;45.528;9.234;2023-02-04T13:25:38;24.30;47.00
40670;DHT22;26355;45.528;9.234;2023-02-04T13:28:03;24.30;46.70
40670;DHT22;26355;45.528;9.234;2023-02-04T13:30:29;24.20;47.00
40670;DHT22;26355;45.528;9.234;2023-02-04T13:32:54;24.10;46.80
40670;DHT22;26355;45.528;9.234;2023-02-04T13:35:20;24.00;46.90
40670;DHT22;26355;45.528;9.234;2023-02-04T13:37:45;24.00;46.90
40670;DHT22;26355;45.528;9.234;2023-02-04T13:40:11;23.90;46.90
40670;DHT22;26355;45.528;9.234;2023-02-04T13:42:36;23.90;47.20
40670;DHT22;26355;45.528;9.234;2023-02-04T13:45:02;23.90;47.30
40670;DHT22;26355;45.528;9.234;2023-02-04T13:47:28;23.80;47.20
40670;DHT22;26355;45.528;9.234;2023-02-04T13:49:53;23.90;47.40
40670;DHT22;26355;45.528;9.234;2023-02-04T13:52:19;23.80;47.60
40670;DHT22;26355;45.528;9.234;2023-02-04T13:54:45;23.70;47.60
40670;DHT22;26355;45.528;9.234;2023-02-04T13:57:10;23.70;47.40
40670;DHT22;26355;45.528;9.234;2023-02-04T13:59:36;23.70;47.20
40670;DHT22;26355;45.528;9.234;2023-02-04T14:02:01;23.60;47.60
40670;DHT22;26355;45.528;9.234;2023-02-04T14:04:27;23.70;47.70
40670;DHT22;26355;45.528;9.234;2023-02-04T14:06:53;23.60;47.70
40670;DHT22;26355;45.528;9.234;2023-02-04T14:09:19;23.60;47.80
40670;DHT22;26355;45.528;9.234;2023-02-04T14:11:45;23.60;48.00
40670;DHT22;26355;45.528;9.234;2023-02-04T14:14:11;23.50;47.90
40670;DHT22;26355;45.528;9.234;2023-02-04T14:16:37;23.40;47.90
40670;DHT22;26355;45.528;9.234;2023-02-04T14:19:02;23.30;47.50
40670;DHT22;26355;45.528;9.234;2023-02-04T14:21:28;23.30;47.90
40670;DHT22;26355;45.528;9.234;2023-02-04T14:23:53;23.30;48.00
40670;DHT22;26355;45.528;9.234;2023-02-04T14:26:19;23.30;47.70
40670;DHT22;26355;45.528;9.234;2023-02-04T14:28:44;23.40;47.80
40670;DHT22;26355;45.528;9.234;2023-02-04T14:31:09;23.10;47.20
40670;DHT22;26355;45.528;9.234;2023-02-04T14:33:35;23.10;47.80
40670;DHT22;26355;45.528;9.234;2023-02-04T14:36:01;23.10;47.80
40670;DHT22;26355;45.528;9.234;2023-02-04T14:38:26;23.10;47.20
40670;DHT22;26355;45.528;9.234;2023-02-04T14:40:56;23.00;47.70
40670;DHT22;26355;45.528;9.234;2023-02-04T14:43:21;22.90;47.70
40670;DHT22;26355;45.528;9.234;2023-02-04T14:45:47;22.90;47.60
40670;DHT22;26355;45.528;9.234;2023-02-04T14:48:12;22.90;47.50
40670;DHT22;26355;45.528;9.234;2023-02-04T14:50:38;22.80;47.10
40670;DHT22;26355;45.528;9.234;2023-02-04T14:53:03;22.80;47.40
40670;DHT22;26355;45.528;9.234;2023-02-04T14:55:29;22.90;47.00
40670;DHT22;26355;45.528;9.234;2023-02-04T14:57:54;22.90;47.20
40670;DHT22;26355;45.528;9.234;2023-02-04T15:00:20;22.90;46.70
40670;DHT22;26355;45.528;9.234;2023-02-04T15:02:45;22.80;46.70
40670;DHT22;26355;45.528;9.234;2023-02-04T15:05:12;22.70;46.30
40670;DHT22;26355;45.528;9.234;2023-02-04T15:07:37;22.60;46.50
40670;DHT22;26355;45.528;9.234;2023-02-04T15:10:03;22.60;46.70
40670;DHT22;26355;45.528;9.234;2023-02-04T15:12:29;22.50;45.80
40670;DHT22;26355;45.528;9.234;2023-02-04T15:14:54;22.40;45.70
40670;DHT22;26355;45.528;9.234;2023-02-04T15:17:20;22.30;45.50
40670;DHT22;26355;45.528;9.234;2023-02-04T15:19:45;22.20;44.10
40670;DHT22;26355;45.528;9.234;2023-02-04T15:22:11;22.10;44.10
40670;DHT22;26355;45.528;9.234;2023-02-04T15:24:37;22.00;43.60
40670;DHT22;26355;45.528;9.234;2023-02-04T15:27:02;22.00;43.90
40670;DHT22;26355;45.528;9.234;2023-02-04T15:29:28;21.90;44.00
40670;DHT22;26355;45.528;9.234;2023-02-04T15:31:54;21.90;44.40